BKQ weather

Blackall Airport
Blackall, Queensland, Australia

Public forecast

Using degrees Celsius for public forecast. Weather courtesy of forecast.io.

METAR (pilot weather report)

Closest report is Longreach Airport, 86.8 nm (160.8 km) NW. Retrieved 2019/04/19 17:00 UTC (60 minutes ago):

YLRE 191700Z AUTO 13009KT 9999 // NCD 17/10 Q1017

TAF (pilot weather forecast)

Closest forecast is Rockhampton Airport, 284.0 nm (525.9 km) ENE. Retrieved 2019/04/19 12:36 UTC (5 hours ago):

TAF YBRK 191112Z 1912/2012 13007KT 9999 SCT025 SCT040 FM192300 11014KT 9999 -SHRA SCT030 SCT050 FM201000 13008KT 9999 SCT025 BKN040 INTER 2000/2008 3000 SHRA SCT015 BKN030